createdAt,value
2022-09-01T00:00:02.740Z,14.90
2022-09-01T00:02:30.412Z,15.00
2022-09-01T00:04:59.015Z,15.60
2022-09-01T00:07:30.510Z,15.40
2022-09-01T00:09:59.008Z,14.80
2022-09-01T00:12:26.843Z,15.00
2022-09-01T00:14:53.702Z,15.00
2022-09-01T00:17:20.685Z,15.50
2022-09-01T00:19:47.516Z,15.00
2022-09-01T00:22:14.281Z,14.80
2022-09-01T00:24:41.543Z,15.20
2022-09-01T00:27:08.511Z,15.10
2022-09-01T00:29:36.180Z,15.20
2022-09-01T00:32:03.286Z,15.30
2022-09-01T00:34:30.127Z,15.30
2022-09-01T00:36:56.859Z,15.10
2022-09-01T00:39:23.799Z,15.40
2022-09-01T00:41:51.333Z,15.60
2022-09-01T00:44:26.946Z,15.60
2022-09-01T00:46:57.150Z,15.80
2022-09-01T00:49:39.515Z,16.00
2022-09-01T00:52:45.691Z,15.50
2022-09-01T00:55:17.605Z,15.50
2022-09-01T00:57:45.405Z,15.60
2022-09-01T01:00:21.615Z,15.50
2022-09-01T01:02:55.856Z,15.50
2022-09-01T01:05:27.826Z,15.60
2022-09-01T01:07:55.778Z,15.30
2022-09-01T01:10:26.696Z,15.50
2022-09-01T01:12:54.005Z,15.20
2022-09-01T01:15:21.183Z,15.10
2022-09-01T01:17:47.929Z,15.30
2022-09-01T01:20:35.402Z,15.40
2022-09-01T01:23:15.952Z,15.30
2022-09-01T01:25:52.199Z,15.20
2022-09-01T01:28:22.617Z,15.20
2022-09-01T01:30:55.849Z,15.30
2022-09-01T01:33:27.057Z,15.20
2022-09-01T01:35:57.722Z,15.50
2022-09-01T01:38:25.615Z,15.10
2022-09-01T01:40:53.755Z,15.20
2022-09-01T01:43:21.942Z,15.20
2022-09-01T01:45:52.220Z,15.00
2022-09-01T01:48:24.094Z,15.10
2022-09-01T01:50:53.692Z,15.50
2022-09-01T01:53:21.213Z,15.80
2022-09-01T01:55:49.636Z,15.70
2022-09-01T01:58:22.174Z,15.40
2022-09-01T02:00:51.732Z,15.10
2022-09-01T02:03:22.040Z,15.60
2022-09-01T02:05:51.788Z,15.40
2022-09-01T02:08:21.964Z,15.30
2022-09-01T02:10:51.452Z,15.40
2022-09-01T02:13:20.923Z,15.20
2022-09-01T02:15:53.700Z,15.00
2022-09-01T02:18:28.537Z,15.10
2022-09-01T02:20:58.947Z,15.20
2022-09-01T02:23:25.929Z,15.30
2022-09-01T02:26:17.977Z,15.20
2022-09-01T02:28:44.287Z,15.20
2022-09-01T02:31:11.815Z,15.40
2022-09-01T02:33:40.142Z,15.20
2022-09-01T02:36:14.316Z,15.30
2022-09-01T02:38:46.786Z,15.20
2022-09-01T02:41:23.079Z,15.20
2022-09-01T02:43:50.906Z,15.30
2022-09-01T02:46:18.865Z,15.70
2022-09-01T02:48:46.176Z,16.20
2022-09-01T02:51:17.714Z,15.50
2022-09-01T02:53:49.815Z,15.50
2022-09-01T02:56:18.160Z,15.50
2022-09-01T02:58:46.415Z,15.50
2022-09-01T03:01:22.144Z,15.50
2022-09-01T03:03:51.124Z,15.50
2022-09-01T03:06:23.991Z,15.80
2022-09-01T03:08:53.177Z,15.90
2022-09-01T03:11:20.174Z,15.50
2022-09-01T03:13:47.410Z,15.80
2022-09-01T03:16:14.341Z,15.80
2022-09-01T03:18:42.806Z,15.40
2022-09-01T03:21:13.717Z,15.50
2022-09-01T03:23:40.465Z,15.70
2022-09-01T03:26:07.187Z,15.50
2022-09-01T03:28:34.117Z,15.50
2022-09-01T03:31:00.921Z,16.00
2022-09-01T03:33:28.408Z,15.50
2022-09-01T03:35:55.941Z,15.40
2022-09-01T03:38:24.557Z,15.40
2022-09-01T03:40:54.979Z,15.50
2022-09-01T03:43:25.037Z,15.60
2022-09-01T03:45:51.934Z,15.40
2022-09-01T03:48:19.465Z,15.60
2022-09-01T03:50:47.369Z,16.00
2022-09-01T03:53:20.049Z,15.70
2022-09-01T03:55:48.397Z,15.60
2022-09-01T03:58:19.069Z,15.60
2022-09-01T04:00:55.464Z,15.60
2022-09-01T04:03:28.828Z,15.60
2022-09-01T04:05:56.613Z,15.40
2022-09-01T04:08:32.592Z,15.50
2022-09-01T04:11:10.192Z,15.50
2022-09-01T04:13:39.223Z,15.60
2022-09-01T04:16:29.822Z,15.50
2022-09-01T04:18:56.620Z,15.50
2022-09-01T04:21:23.332Z,15.60
2022-09-01T04:23:50.053Z,15.60
2022-09-01T04:26:20.463Z,15.30
2022-09-01T04:28:50.862Z,15.60
2022-09-01T04:31:21.107Z,15.50
2022-09-01T04:33:52.740Z,15.50
2022-09-01T04:36:27.441Z,15.70
2022-09-01T04:39:00.631Z,15.50
2022-09-01T04:41:32.119Z,15.50
2022-09-01T04:44:04.834Z,15.50
2022-09-01T04:46:35.812Z,15.50
2022-09-01T04:49:13.120Z,16.00
2022-09-01T04:51:42.746Z,15.60
2022-09-01T04:54:14.733Z,15.60
2022-09-01T04:56:45.074Z,15.50
2022-09-01T04:59:13.106Z,15.60
2022-09-01T05:01:45.359Z,15.50
2022-09-01T05:04:22.728Z,15.60
2022-09-01T05:06:57.879Z,15.90
2022-09-01T05:09:25.202Z,15.30
2022-09-01T05:11:53.047Z,15.50
2022-09-01T05:14:21.433Z,15.80
2022-09-01T05:16:50.037Z,15.50
2022-09-01T05:19:21.554Z,15.10
2022-09-01T05:21:49.782Z,15.10
2022-09-01T05:24:21.812Z,15.30
2022-09-01T05:26:50.914Z,15.50
2022-09-01T05:29:18.034Z,15.20
2022-09-01T05:31:50.399Z,15.60
2022-09-01T05:34:26.441Z,15.70
2022-09-01T05:36:57.485Z,15.60
2022-09-01T05:39:26.093Z,15.40
2022-09-01T05:41:54.058Z,15.80
2022-09-01T05:44:23.629Z,15.50
2022-09-01T05:46:50.861Z,15.90
2022-09-01T05:49:18.539Z,15.60
2022-09-01T05:51:52.191Z,16.00
2022-09-01T05:54:23.241Z,15.80
2022-09-01T05:56:50.341Z,15.80
2022-09-01T05:59:25.531Z,15.60
2022-09-01T06:01:53.715Z,15.50
2022-09-01T06:04:20.745Z,16.00
2022-09-01T06:07:07.170Z,15.60
2022-09-01T06:09:41.728Z,15.60
2022-09-01T06:12:17.524Z,15.70
2022-09-01T06:14:49.657Z,15.80
2022-09-01T06:17:22.164Z,15.70
2022-09-01T06:19:49.068Z,15.70
2022-09-01T06:22:17.126Z,15.70
2022-09-01T06:24:45.584Z,15.60
2022-09-01T06:27:18.146Z,16.00
2022-09-01T06:29:45.466Z,15.30
2022-09-01T06:32:12.591Z,15.80
2022-09-01T06:34:44.792Z,15.50
2022-09-01T06:37:13.366Z,16.30
2022-09-01T06:39:40.197Z,15.80
2022-09-01T06:42:09.457Z,15.60
2022-09-01T06:44:40.883Z,15.60
2022-09-01T06:47:09.165Z,15.50
2022-09-01T06:49:36.855Z,15.70
2022-09-01T06:52:04.762Z,15.80
2022-09-01T06:54:35.683Z,15.80
2022-09-01T06:59:52.505Z,15.80
2022-09-01T07:02:24.498Z,15.90
2022-09-01T07:04:54.217Z,15.90
2022-09-01T07:10:24.884Z,15.90
2022-09-01T07:13:08.621Z,16.00
2022-09-01T07:18:31.374Z,16.00
2022-09-01T07:21:36.538Z,15.90
2022-09-01T07:24:07.667Z,16.00
2022-09-01T07:26:35.345Z,16.30
2022-09-01T07:29:04.184Z,15.90
2022-09-01T07:32:43.767Z,16.10
2022-09-01T07:45:30.743Z,16.40
2022-09-01T07:48:06.507Z,16.40
2022-09-01T07:51:07.576Z,16.40
2022-09-01T07:53:29.856Z,16.60
2022-09-01T07:55:57.193Z,16.40
2022-09-01T07:58:26.580Z,16.40
2022-09-01T08:00:55.188Z,16.40
2022-09-01T08:03:25.266Z,16.90
2022-09-01T08:05:57.744Z,16.50
2022-09-01T08:08:29.036Z,17.30
2022-09-01T08:11:04.285Z,16.50
2022-09-01T08:13:34.648Z,16.70
2022-09-01T08:16:08.429Z,16.90
2022-09-01T08:18:51.336Z,17.10
2022-09-01T08:21:21.982Z,17.20
2022-09-01T08:23:50.256Z,17.20
2022-09-01T08:26:20.045Z,17.20
2022-09-01T08:28:54.967Z,17.00
2022-09-01T08:31:23.633Z,17.50
2022-09-01T08:33:50.705Z,17.10
2022-09-01T08:36:23.060Z,17.10
2022-09-01T08:38:52.056Z,17.20
2022-09-01T08:41:55.575Z,17.30
2022-09-01T08:44:48.640Z,17.40
2022-09-01T08:47:28.116Z,17.50
2022-09-01T08:49:59.085Z,17.50
2022-09-01T08:52:34.211Z,17.70
2022-09-01T08:55:25.897Z,17.50
2022-09-01T08:57:59.149Z,17.50
2022-09-01T09:00:30.180Z,17.60
2022-09-01T09:03:22.134Z,17.50
2022-09-01T09:06:12.760Z,17.60
2022-09-01T09:09:01.513Z,17.60
2022-09-01T09:11:58.975Z,17.60
2022-09-01T09:14:53.707Z,17.60
2022-09-01T09:17:25.487Z,17.80
2022-09-01T09:19:52.323Z,18.20
2022-09-01T09:22:21.219Z,18.10
2022-09-01T09:25:09.117Z,18.30
2022-09-01T09:27:42.248Z,17.90
2022-09-01T09:30:26.479Z,17.90
2022-09-01T09:35:50.798Z,18.00
2022-09-01T09:38:28.508Z,18.20
2022-09-01T09:41:17.860Z,18.50
2022-09-01T09:43:58.755Z,18.50
2022-09-01T09:46:31.971Z,18.50
2022-09-01T09:49:34.561Z,18.50
2022-09-01T09:52:10.153Z,18.50
2022-09-01T09:54:39.595Z,18.40
2022-09-01T09:57:09.107Z,18.50
2022-09-01T10:00:03.797Z,19.30
2022-09-01T10:02:40.344Z,18.70
2022-09-01T10:05:27.865Z,18.70
2022-09-01T10:07:56.209Z,18.80
2022-09-01T10:10:25.903Z,18.80
2022-09-01T10:12:57.391Z,18.70
2022-09-01T10:15:30.099Z,18.90
2022-09-01T10:21:08.342Z,18.90
2022-09-01T10:23:38.651Z,19.00
2022-09-01T10:26:24.016Z,19.00
2022-09-01T10:29:07.273Z,18.90
2022-09-01T10:31:40.874Z,18.80
2022-09-01T10:34:11.802Z,18.80
2022-09-01T10:36:41.981Z,18.90
2022-09-01T10:39:21.915Z,19.00
2022-09-01T10:42:00.487Z,19.10
2022-09-01T10:44:33.767Z,19.30
2022-09-01T10:47:13.594Z,19.40
2022-09-01T10:49:47.399Z,19.40
2022-09-01T10:52:43.118Z,19.60
2022-09-01T10:55:24.495Z,19.80
2022-09-01T10:59:31.098Z,19.80
2022-09-01T11:01:40.523Z,19.60
2022-09-01T11:03:56.418Z,19.40
2022-09-01T11:07:13.912Z,19.00
2022-09-01T11:09:43.688Z,18.90
2022-09-01T11:12:29.817Z,18.90
2022-09-01T11:15:01.211Z,19.00
2022-09-01T11:17:36.424Z,19.00
2022-09-01T11:20:09.989Z,19.20
2022-09-01T11:23:24.227Z,19.40
2022-09-01T11:26:23.561Z,19.50
2022-09-01T11:28:50.733Z,19.40
2022-09-01T11:31:29.480Z,19.50
2022-09-01T11:34:03.907Z,19.40
2022-09-01T11:36:47.225Z,19.40
2022-09-01T11:39:17.994Z,19.50
2022-09-01T11:42:08.143Z,19.70
2022-09-01T11:44:43.854Z,19.70
2022-09-01T11:47:21.015Z,19.60
2022-09-01T11:49:51.876Z,19.80
2022-09-01T11:52:20.589Z,20.00
2022-09-01T11:54:48.150Z,20.00
2022-09-01T11:57:26.919Z,20.00
2022-09-01T11:59:54.738Z,20.10
2022-09-01T12:02:29.635Z,20.20
2022-09-01T12:04:57.392Z,20.20
2022-09-01T12:07:29.483Z,20.40
2022-09-01T12:09:56.306Z,20.40
2022-09-01T12:12:39.271Z,20.20
2022-09-01T12:15:18.842Z,20.10
2022-09-01T12:17:46.566Z,20.00
2022-09-01T12:20:33.003Z,19.90
2022-09-01T12:23:02.302Z,19.60
2022-09-01T12:25:33.117Z,19.50
2022-09-01T12:28:03.738Z,19.60
2022-09-01T12:30:35.247Z,19.80
2022-09-01T12:35:57.406Z,20.30
2022-09-01T12:38:30.214Z,20.60
2022-09-01T12:40:58.996Z,20.40
2022-09-01T12:43:32.491Z,20.40
2022-09-01T12:46:02.905Z,20.40
2022-09-01T12:48:39.554Z,20.40
2022-09-01T12:51:15.236Z,20.30
2022-09-01T12:53:58.277Z,20.10
2022-09-01T12:56:34.720Z,20.10
2022-09-01T12:59:14.230Z,20.30
2022-09-01T13:01:43.046Z,20.20
2022-09-01T13:04:26.409Z,20.20
2022-09-01T13:06:55.772Z,20.20
2022-09-01T13:09:23.088Z,20.20
2022-09-01T13:12:06.521Z,20.10
2022-09-01T13:14:33.847Z,19.90
2022-09-01T13:17:01.287Z,19.80
2022-09-01T13:19:30.545Z,19.80
2022-09-01T13:21:57.755Z,19.80
2022-09-01T13:24:28.091Z,19.80
2022-09-01T13:29:45.044Z,20.10
2022-09-01T13:32:20.840Z,20.20
2022-09-01T13:34:50.771Z,20.20
2022-09-01T13:37:21.917Z,20.10
2022-09-01T13:39:48.832Z,20.30
2022-09-01T13:42:16.420Z,20.60
2022-09-01T13:44:44.258Z,20.70
2022-09-01T13:50:09.869Z,21.10
2022-09-01T13:52:40.527Z,21.50
2022-09-01T13:55:10.994Z,22.00
2022-09-01T13:57:38.468Z,22.50
2022-09-01T14:00:11.078Z,23.50
2022-09-01T14:02:49.013Z,24.30
2022-09-01T14:05:18.828Z,24.50
2022-09-01T14:07:45.637Z,25.10
2022-09-01T14:10:14.550Z,26.00
2022-09-01T14:12:42.293Z,25.90
2022-09-01T14:15:13.738Z,25.30
2022-09-01T14:17:43.412Z,25.30
2022-09-01T14:20:18.600Z,26.00
2022-09-01T14:22:46.372Z,25.80
2022-09-01T14:25:14.356Z,24.90
2022-09-01T14:27:43.914Z,24.00
2022-09-01T14:30:18.563Z,24.50
2022-09-01T14:32:45.891Z,25.60
2022-09-01T14:35:13.037Z,26.80
2022-09-01T14:37:40.236Z,27.20
2022-09-01T14:40:08.911Z,27.70
2022-09-01T14:42:37.195Z,27.20
2022-09-01T14:45:05.412Z,26.00
2022-09-01T14:47:32.285Z,24.60
2022-09-01T14:50:01.412Z,25.10
2022-09-01T14:52:28.200Z,25.90
2022-09-01T14:54:54.878Z,26.30
2022-09-01T14:57:30.758Z,25.50
2022-09-01T15:00:10.110Z,24.80
2022-09-01T15:02:38.345Z,23.70
2022-09-01T15:05:06.014Z,23.80
2022-09-01T15:07:32.773Z,24.30
2022-09-01T15:09:59.677Z,24.20
2022-09-01T15:12:30.912Z,23.60
2022-09-01T15:14:59.689Z,24.00
2022-09-01T15:17:29.666Z,24.80
2022-09-01T15:20:16.411Z,25.10
2022-09-01T15:22:43.131Z,25.20
2022-09-01T15:25:09.876Z,24.90
2022-09-01T15:27:41.309Z,24.10
2022-09-01T15:30:14.531Z,23.60
2022-09-01T15:32:46.464Z,23.10
2022-09-01T15:35:14.133Z,22.80
2022-09-01T15:37:41.213Z,22.90
2022-09-01T15:40:08.960Z,23.50
2022-09-01T15:42:37.407Z,24.40
2022-09-01T15:45:07.610Z,24.90
2022-09-01T15:47:34.838Z,25.30
2022-09-01T15:50:03.794Z,25.40
2022-09-01T15:52:33.041Z,25.20
2022-09-01T15:55:00.593Z,24.40
2022-09-01T15:57:27.483Z,23.40
2022-09-01T15:59:54.612Z,22.70
2022-09-01T16:02:23.983Z,22.10
2022-09-01T16:04:50.689Z,22.10
2022-09-01T16:07:17.408Z,22.50
2022-09-01T16:09:44.079Z,22.40
2022-09-01T16:12:10.809Z,22.40
2022-09-01T16:14:37.508Z,22.10
2022-09-01T16:17:13.542Z,22.20
2022-09-01T16:19:51.672Z,22.50
2022-09-01T16:22:18.518Z,22.70
2022-09-01T16:24:48.567Z,22.80
2022-09-01T16:27:18.436Z,22.60
2022-09-01T16:29:54.017Z,22.20
2022-09-01T16:32:23.254Z,22.10
2022-09-01T16:34:51.849Z,21.80
2022-09-01T16:37:38.934Z,21.50
2022-09-01T16:40:17.985Z,21.30
2022-09-01T16:42:57.818Z,21.10
2022-09-01T16:45:43.771Z,21.00
2022-09-01T16:48:21.751Z,21.00
2022-09-01T16:51:02.577Z,21.20
2022-09-01T16:53:32.276Z,20.90
2022-09-01T16:56:09.489Z,21.00
2022-09-01T16:58:53.612Z,20.80
2022-09-01T17:01:56.552Z,20.70
2022-09-01T17:04:40.332Z,20.80
2022-09-01T17:07:30.008Z,20.70
2022-09-01T17:10:06.739Z,20.70
2022-09-01T17:12:48.947Z,20.40
2022-09-01T17:15:19.938Z,20.20
2022-09-01T17:17:54.804Z,20.20
2022-09-01T17:20:30.998Z,19.90
2022-09-01T17:23:00.585Z,20.10
2022-09-01T17:25:33.721Z,19.80
2022-09-01T17:28:02.826Z,19.80
2022-09-01T17:30:31.925Z,19.50
2022-09-01T17:33:17.455Z,19.30
2022-09-01T17:36:04.416Z,19.30
2022-09-01T17:38:54.508Z,19.20
2022-09-01T17:41:52.727Z,19.10
2022-09-01T17:44:35.642Z,19.10
2022-09-01T17:47:12.751Z,19.00
2022-09-01T17:50:01.080Z,18.90
2022-09-01T17:52:52.370Z,18.90
2022-09-01T17:55:51.933Z,18.70
2022-09-01T17:58:56.128Z,18.70
2022-09-01T18:01:42.856Z,18.60
2022-09-01T18:04:18.897Z,18.50
2022-09-01T18:06:52.640Z,18.40
2022-09-01T18:09:24.364Z,18.40
2022-09-01T18:11:58.349Z,18.30
2022-09-01T18:14:33.444Z,18.30
2022-09-01T18:17:18.859Z,18.30
2022-09-01T18:19:52.683Z,18.40
2022-09-01T18:22:22.500Z,18.10
2022-09-01T18:24:57.183Z,18.10
2022-09-01T18:27:27.699Z,18.10
2022-09-01T18:29:56.867Z,17.90
2022-09-01T18:32:44.610Z,18.00
2022-09-01T18:35:34.102Z,17.90
2022-09-01T18:38:28.247Z,17.90
2022-09-01T18:41:30.549Z,17.80
2022-09-01T18:43:57.450Z,17.70
2022-09-01T18:46:33.312Z,17.70
2022-09-01T18:49:30.337Z,17.70
2022-09-01T18:52:18.086Z,17.70
2022-09-01T18:55:16.067Z,17.60
2022-09-01T18:57:47.169Z,17.60
2022-09-01T19:00:19.333Z,17.60
2022-09-01T19:02:52.254Z,17.50
2022-09-01T19:05:56.622Z,17.50
2022-09-01T19:08:47.836Z,17.40
2022-09-01T19:11:58.467Z,17.40
2022-09-01T19:14:45.307Z,17.30
2022-09-01T19:17:16.339Z,17.20
2022-09-01T19:19:51.397Z,17.10
2022-09-01T19:22:37.281Z,17.20
2022-09-01T19:25:27.693Z,17.20
2022-09-01T19:28:13.828Z,17.10
2022-09-01T19:30:47.947Z,17.10
2022-09-01T19:33:19.919Z,17.10
2022-09-01T19:35:49.283Z,17.20
2022-09-01T19:38:23.776Z,17.00
2022-09-01T19:40:52.598Z,17.00
2022-09-01T19:43:21.010Z,17.00
2022-09-01T19:46:22.377Z,17.10
2022-09-01T19:49:02.499Z,16.90
2022-09-01T19:51:38.145Z,16.80
2022-09-01T19:54:21.062Z,16.90
2022-09-01T19:56:52.750Z,16.80
2022-09-01T19:59:36.504Z,16.80
2022-09-01T20:02:12.944Z,16.80
2022-09-01T20:04:46.850Z,16.70
2022-09-01T20:07:28.938Z,16.70
2022-09-01T20:10:01.542Z,16.80
2022-09-01T20:12:40.088Z,16.80
2022-09-01T20:15:20.810Z,16.70
2022-09-01T20:17:57.613Z,16.70
2022-09-01T20:20:43.367Z,16.70
2022-09-01T20:23:27.131Z,16.90
2022-09-01T20:26:04.113Z,16.60
2022-09-01T20:29:12.844Z,16.50
2022-09-01T20:31:45.521Z,16.50
2022-09-01T20:34:29.189Z,16.60
2022-09-01T20:37:05.173Z,16.50
2022-09-01T20:40:04.389Z,16.50
2022-09-01T20:42:43.639Z,16.40
2022-09-01T20:45:10.319Z,16.30
2022-09-01T20:47:37.101Z,16.20
2022-09-01T20:50:11.839Z,16.10
2022-09-01T20:53:22.341Z,16.10
2022-09-01T20:56:16.965Z,16.00
2022-09-01T20:58:53.755Z,15.90
2022-09-01T21:01:43.519Z,15.90
2022-09-01T21:04:22.217Z,15.90
2022-09-01T21:06:59.973Z,15.90
2022-09-01T21:09:59.734Z,15.90
2022-09-01T21:12:37.446Z,15.90
2022-09-01T21:15:41.684Z,15.90
2022-09-01T21:18:36.837Z,16.00
2022-09-01T21:21:07.032Z,16.00
2022-09-01T21:23:33.958Z,16.00
2022-09-01T21:26:01.580Z,15.90
2022-09-01T21:28:29.450Z,15.70
2022-09-01T21:30:57.866Z,15.80
2022-09-01T21:33:26.708Z,15.60
2022-09-01T21:35:53.915Z,15.80
2022-09-01T21:38:20.689Z,15.60
2022-09-01T21:40:49.160Z,15.80
2022-09-01T21:43:21.190Z,15.60
2022-09-01T21:45:48.299Z,15.80
2022-09-01T21:48:15.209Z,15.80
2022-09-01T21:50:42.078Z,15.70
2022-09-01T21:53:10.285Z,15.70
2022-09-01T21:55:37.638Z,15.90
2022-09-01T21:58:04.354Z,15.70
2022-09-01T22:00:33.627Z,15.20
2022-09-01T22:03:01.949Z,16.20
2022-09-01T22:05:29.987Z,15.90
2022-09-01T22:07:58.933Z,15.50
2022-09-01T22:10:28.291Z,15.90
2022-09-01T22:12:56.184Z,15.60
2022-09-01T22:15:24.736Z,15.50
2022-09-01T22:17:55.599Z,15.50
2022-09-01T22:20:24.870Z,15.30
2022-09-01T22:22:52.074Z,15.30
2022-09-01T22:25:23.815Z,15.40
2022-09-01T22:27:50.843Z,15.20
2022-09-01T22:30:19.199Z,15.10
2022-09-01T22:32:47.568Z,15.00
2022-09-01T22:35:16.070Z,14.70
2022-09-01T22:37:43.355Z,15.00
2022-09-01T22:40:11.459Z,15.10
2022-09-01T22:42:38.797Z,14.80
2022-09-01T22:45:07.648Z,15.20
2022-09-01T22:47:37.353Z,14.80
2022-09-01T22:50:06.356Z,14.80
2022-09-01T22:52:34.043Z,14.80
2022-09-01T22:55:00.745Z,15.00
2022-09-01T22:57:28.604Z,14.70
2022-09-01T22:59:55.684Z,14.60
2022-09-01T23:02:23.450Z,14.40
2022-09-01T23:04:50.536Z,14.00
2022-09-01T23:07:17.271Z,14.30
2022-09-01T23:09:44.038Z,14.30
2022-09-01T23:12:10.736Z,14.10
2022-09-01T23:14:40.337Z,13.80
2022-09-01T23:17:07.085Z,14.10
2022-09-01T23:19:33.814Z,14.20
2022-09-01T23:22:00.867Z,14.20
2022-09-01T23:24:27.642Z,14.20
2022-09-01T23:26:54.335Z,14.30
2022-09-01T23:29:21.330Z,14.30
2022-09-01T23:31:48.523Z,14.10
2022-09-01T23:34:15.368Z,14.30
2022-09-01T23:36:42.488Z,14.20
2022-09-01T23:39:09.191Z,13.90
2022-09-01T23:41:38.622Z,14.00
2022-09-01T23:44:09.443Z,14.40
2022-09-01T23:46:42.861Z,14.30
2022-09-01T23:49:11.175Z,14.10
2022-09-01T23:51:39.224Z,14.10
2022-09-01T23:54:06.542Z,14.70
2022-09-01T23:56:33.702Z,14.40
2022-09-01T23:59:00.909Z,14.50
